sensor_id;sensor_type;location;lat;lon;timestamp;P1;durP1;ratioP1;P2;durP2;ratioP2
3347;SDS011;1687;49.540;8.574;2023-04-09T00:02:17;11.87;;;5.40;;
3347;SDS011;1687;49.540;8.574;2023-04-09T00:04:42;10.00;;;4.53;;
3347;SDS011;1687;49.540;8.574;2023-04-09T00:07:08;10.30;;;4.90;;
3347;SDS011;1687;49.540;8.574;2023-04-09T00:09:34;10.83;;;4.90;;
3347;SDS011;1687;49.540;8.574;2023-04-09T00:11:59;10.03;;;5.30;;
3347;SDS011;1687;49.540;8.574;2023-04-09T00:14:26;11.70;;;4.90;;
3347;SDS011;1687;49.540;8.574;2023-04-09T00:16:52;11.33;;;5.30;;
3347;SDS011;1687;49.540;8.574;2023-04-09T00:19:18;11.67;;;4.40;;
3347;SDS011;1687;49.540;8.574;2023-04-09T00:21:44;11.30;;;5.70;;
3347;SDS011;1687;49.540;8.574;2023-04-09T00:24:10;11.47;;;4.67;;
3347;SDS011;1687;49.540;8.574;2023-04-09T00:26:36;14.57;;;5.60;;
3347;SDS011;1687;49.540;8.574;2023-04-09T00:29:01;8.77;;;4.47;;
3347;SDS011;1687;49.540;8.574;2023-04-09T00:31:27;8.40;;;4.73;;
3347;SDS011;1687;49.540;8.574;2023-04-09T00:33:53;12.63;;;6.10;;
3347;SDS011;1687;49.540;8.574;2023-04-09T00:36:18;11.33;;;5.27;;
3347;SDS011;1687;49.540;8.574;2023-04-09T00:38:44;13.80;;;4.90;;
3347;SDS011;1687;49.540;8.574;2023-04-09T00:41:11;10.77;;;5.60;;
3347;SDS011;1687;49.540;8.574;2023-04-09T00:43:37;16.37;;;5.63;;
3347;SDS011;1687;49.540;8.574;2023-04-09T00:46:03;12.80;;;5.67;;
3347;SDS011;1687;49.540;8.574;2023-04-09T00:48:29;15.10;;;5.90;;
3347;SDS011;1687;49.540;8.574;2023-04-09T00:50:55;12.63;;;5.87;;
3347;SDS011;1687;49.540;8.574;2023-04-09T00:53:20;14.17;;;6.63;;
3347;SDS011;1687;49.540;8.574;2023-04-09T00:55:46;10.87;;;5.90;;
3347;SDS011;1687;49.540;8.574;2023-04-09T00:58:12;14.17;;;6.90;;
3347;SDS011;1687;49.540;8.574;2023-04-09T01:00:38;9.10;;;4.77;;
3347;SDS011;1687;49.540;8.574;2023-04-09T01:03:04;14.03;;;7.07;;
3347;SDS011;1687;49.540;8.574;2023-04-09T01:05:43;12.77;;;5.20;;
3347;SDS011;1687;49.540;8.574;2023-04-09T01:14:07;15.40;;;6.10;;
3347;SDS011;1687;49.540;8.574;2023-04-09T01:16:52;10.70;;;5.60;;
3347;SDS011;1687;49.540;8.574;2023-04-09T01:28:16;14.10;;;7.00;;
3347;SDS011;1687;49.540;8.574;2023-04-09T01:30:44;17.40;;;6.43;;
3347;SDS011;1687;49.540;8.574;2023-04-09T01:33:17;19.90;;;7.93;;
3347;SDS011;1687;49.540;8.574;2023-04-09T01:35:47;16.30;;;6.40;;
3347;SDS011;1687;49.540;8.574;2023-04-09T01:38:15;16.90;;;7.40;;
3347;SDS011;1687;49.540;8.574;2023-04-09T01:40:43;13.43;;;6.50;;
3347;SDS011;1687;49.540;8.574;2023-04-09T01:43:10;13.20;;;7.13;;
3347;SDS011;1687;49.540;8.574;2023-04-09T01:45:37;14.67;;;6.57;;
3347;SDS011;1687;49.540;8.574;2023-04-09T01:48:04;14.60;;;7.43;;
3347;SDS011;1687;49.540;8.574;2023-04-09T01:50:31;17.33;;;7.43;;
3347;SDS011;1687;49.540;8.574;2023-04-09T01:52:58;13.37;;;6.20;;
3347;SDS011;1687;49.540;8.574;2023-04-09T01:55:25;14.27;;;6.70;;
3347;SDS011;1687;49.540;8.574;2023-04-09T01:57:51;16.47;;;7.73;;
3347;SDS011;1687;49.540;8.574;2023-04-09T02:00:17;17.97;;;7.47;;
3347;SDS011;1687;49.540;8.574;2023-04-09T02:03:06;12.03;;;6.27;;
3347;SDS011;1687;49.540;8.574;2023-04-09T02:05:30;13.33;;;6.07;;
3347;SDS011;1687;49.540;8.574;2023-04-09T02:08:04;16.63;;;6.30;;
3347;SDS011;1687;49.540;8.574;2023-04-09T02:10:33;18.37;;;7.07;;
3347;SDS011;1687;49.540;8.574;2023-04-09T02:13:03;19.13;;;6.77;;
3347;SDS011;1687;49.540;8.574;2023-04-09T02:15:30;13.80;;;6.97;;
3347;SDS011;1687;49.540;8.574;2023-04-09T02:17:59;17.57;;;7.57;;
3347;SDS011;1687;49.540;8.574;2023-04-09T02:20:25;18.17;;;8.27;;
3347;SDS011;1687;49.540;8.574;2023-04-09T02:22:51;17.90;;;7.10;;
3347;SDS011;1687;49.540;8.574;2023-04-09T02:25:17;18.10;;;7.43;;
3347;SDS011;1687;49.540;8.574;2023-04-09T02:27:43;18.60;;;6.93;;
3347;SDS011;1687;49.540;8.574;2023-04-09T02:30:09;14.93;;;7.40;;
3347;SDS011;1687;49.540;8.574;2023-04-09T02:32:35;14.30;;;6.90;;
3347;SDS011;1687;49.540;8.574;2023-04-09T02:35:00;12.50;;;6.50;;
3347;SDS011;1687;49.540;8.574;2023-04-09T02:37:26;18.20;;;7.03;;
3347;SDS011;1687;49.540;8.574;2023-04-09T02:39:52;25.43;;;8.97;;
3347;SDS011;1687;49.540;8.574;2023-04-09T02:42:18;16.93;;;7.60;;
3347;SDS011;1687;49.540;8.574;2023-04-09T02:44:44;15.93;;;7.50;;
3347;SDS011;1687;49.540;8.574;2023-04-09T02:47:10;11.57;;;6.40;;
3347;SDS011;1687;49.540;8.574;2023-04-09T02:49:35;16.83;;;7.70;;
3347;SDS011;1687;49.540;8.574;2023-04-09T02:52:01;17.23;;;7.60;;
3347;SDS011;1687;49.540;8.574;2023-04-09T02:54:27;17.93;;;9.00;;
3347;SDS011;1687;49.540;8.574;2023-04-09T02:56:52;17.00;;;8.60;;
3347;SDS011;1687;49.540;8.574;2023-04-09T02:59:18;18.97;;;8.03;;
3347;SDS011;1687;49.540;8.574;2023-04-09T03:01:44;25.27;;;8.30;;
3347;SDS011;1687;49.540;8.574;2023-04-09T03:04:09;18.30;;;7.63;;
3347;SDS011;1687;49.540;8.574;2023-04-09T03:06:35;15.10;;;7.83;;
3347;SDS011;1687;49.540;8.574;2023-04-09T03:09:01;12.60;;;6.33;;
3347;SDS011;1687;49.540;8.574;2023-04-09T03:11:26;20.33;;;8.93;;
3347;SDS011;1687;49.540;8.574;2023-04-09T03:13:52;19.30;;;7.67;;
3347;SDS011;1687;49.540;8.574;2023-04-09T03:16:18;14.00;;;7.43;;
3347;SDS011;1687;49.540;8.574;2023-04-09T03:18:43;19.93;;;8.10;;
3347;SDS011;1687;49.540;8.574;2023-04-09T03:21:09;12.73;;;7.33;;
3347;SDS011;1687;49.540;8.574;2023-04-09T03:23:35;11.17;;;6.33;;
3347;SDS011;1687;49.540;8.574;2023-04-09T03:26:01;19.47;;;7.50;;
3347;SDS011;1687;49.540;8.574;2023-04-09T03:28:29;19.40;;;7.33;;
3347;SDS011;1687;49.540;8.574;2023-04-09T03:30:55;17.77;;;7.87;;
3347;SDS011;1687;49.540;8.574;2023-04-09T03:33:21;18.80;;;7.83;;
3347;SDS011;1687;49.540;8.574;2023-04-09T03:35:48;24.83;;;7.70;;
3347;SDS011;1687;49.540;8.574;2023-04-09T03:38:13;20.10;;;7.73;;
3347;SDS011;1687;49.540;8.574;2023-04-09T03:40:39;22.13;;;7.93;;
3347;SDS011;1687;49.540;8.574;2023-04-09T03:43:06;20.77;;;8.00;;
3347;SDS011;1687;49.540;8.574;2023-04-09T03:45:32;17.70;;;7.33;;
3347;SDS011;1687;49.540;8.574;2023-04-09T03:47:58;18.27;;;8.37;;
3347;SDS011;1687;49.540;8.574;2023-04-09T03:50:23;16.80;;;7.50;;
3347;SDS011;1687;49.540;8.574;2023-04-09T03:52:49;22.57;;;10.07;;
3347;SDS011;1687;49.540;8.574;2023-04-09T03:55:14;20.23;;;7.53;;
3347;SDS011;1687;49.540;8.574;2023-04-09T03:57:40;25.13;;;10.10;;
3347;SDS011;1687;49.540;8.574;2023-04-09T04:00:06;17.53;;;8.33;;
3347;SDS011;1687;49.540;8.574;2023-04-09T04:02:32;20.43;;;8.23;;
3347;SDS011;1687;49.540;8.574;2023-04-09T04:04:58;17.30;;;6.90;;
3347;SDS011;1687;49.540;8.574;2023-04-09T04:07:24;19.00;;;7.73;;
3347;SDS011;1687;49.540;8.574;2023-04-09T04:09:51;19.20;;;8.37;;
3347;SDS011;1687;49.540;8.574;2023-04-09T04:12:16;23.93;;;9.40;;
3347;SDS011;1687;49.540;8.574;2023-04-09T04:14:42;18.67;;;7.63;;
3347;SDS011;1687;49.540;8.574;2023-04-09T04:17:07;21.27;;;9.93;;
3347;SDS011;1687;49.540;8.574;2023-04-09T04:19:35;20.60;;;9.23;;
3347;SDS011;1687;49.540;8.574;2023-04-09T04:22:01;30.40;;;9.83;;
3347;SDS011;1687;49.540;8.574;2023-04-09T04:24:26;15.47;;;8.97;;
3347;SDS011;1687;49.540;8.574;2023-04-09T04:26:52;19.10;;;8.27;;
3347;SDS011;1687;49.540;8.574;2023-04-09T04:29:18;26.70;;;9.70;;
3347;SDS011;1687;49.540;8.574;2023-04-09T04:31:43;19.43;;;8.97;;
3347;SDS011;1687;49.540;8.574;2023-04-09T04:34:09;16.00;;;8.40;;
3347;SDS011;1687;49.540;8.574;2023-04-09T04:36:35;18.17;;;8.20;;
3347;SDS011;1687;49.540;8.574;2023-04-09T04:39:01;25.13;;;9.17;;
3347;SDS011;1687;49.540;8.574;2023-04-09T04:41:27;17.30;;;7.43;;
3347;SDS011;1687;49.540;8.574;2023-04-09T04:43:53;17.00;;;8.40;;
3347;SDS011;1687;49.540;8.574;2023-04-09T04:46:19;24.43;;;10.67;;
3347;SDS011;1687;49.540;8.574;2023-04-09T04:48:45;22.63;;;8.63;;
3347;SDS011;1687;49.540;8.574;2023-04-09T04:51:10;26.57;;;9.60;;
3347;SDS011;1687;49.540;8.574;2023-04-09T04:53:36;33.47;;;10.30;;
3347;SDS011;1687;49.540;8.574;2023-04-09T04:56:01;18.13;;;9.10;;
3347;SDS011;1687;49.540;8.574;2023-04-09T04:58:27;21.83;;;8.13;;
3347;SDS011;1687;49.540;8.574;2023-04-09T05:00:54;17.20;;;8.63;;
3347;SDS011;1687;49.540;8.574;2023-04-09T05:03:20;16.83;;;7.90;;
3347;SDS011;1687;49.540;8.574;2023-04-09T05:05:45;30.40;;;10.67;;
3347;SDS011;1687;49.540;8.574;2023-04-09T05:08:11;20.40;;;7.03;;
3347;SDS011;1687;49.540;8.574;2023-04-09T05:10:39;26.13;;;10.57;;
3347;SDS011;1687;49.540;8.574;2023-04-09T05:13:07;23.27;;;9.70;;
3347;SDS011;1687;49.540;8.574;2023-04-09T05:15:32;22.17;;;10.50;;
3347;SDS011;1687;49.540;8.574;2023-04-09T05:18:05;20.40;;;9.67;;
3347;SDS011;1687;49.540;8.574;2023-04-09T05:20:32;27.70;;;9.97;;
3347;SDS011;1687;49.540;8.574;2023-04-09T05:22:58;29.03;;;8.57;;
3347;SDS011;1687;49.540;8.574;2023-04-09T05:25:24;17.63;;;8.20;;
3347;SDS011;1687;49.540;8.574;2023-04-09T05:27:50;21.67;;;8.13;;
3347;SDS011;1687;49.540;8.574;2023-04-09T05:30:15;25.90;;;7.97;;
3347;SDS011;1687;49.540;8.574;2023-04-09T05:32:41;22.50;;;11.77;;
3347;SDS011;1687;49.540;8.574;2023-04-09T05:35:07;21.90;;;9.10;;
3347;SDS011;1687;49.540;8.574;2023-04-09T05:37:33;27.00;;;10.30;;
3347;SDS011;1687;49.540;8.574;2023-04-09T05:39:58;20.53;;;9.47;;
3347;SDS011;1687;49.540;8.574;2023-04-09T05:42:24;30.40;;;10.37;;
3347;SDS011;1687;49.540;8.574;2023-04-09T05:44:50;24.27;;;9.60;;
3347;SDS011;1687;49.540;8.574;2023-04-09T05:47:16;25.97;;;11.70;;
3347;SDS011;1687;49.540;8.574;2023-04-09T05:49:41;24.57;;;11.17;;
3347;SDS011;1687;49.540;8.574;2023-04-09T05:52:07;31.67;;;11.43;;
3347;SDS011;1687;49.540;8.574;2023-04-09T05:54:33;24.93;;;11.43;;
3347;SDS011;1687;49.540;8.574;2023-04-09T05:57:00;23.10;;;9.67;;
3347;SDS011;1687;49.540;8.574;2023-04-09T05:59:26;20.07;;;10.10;;
3347;SDS011;1687;49.540;8.574;2023-04-09T06:01:51;27.40;;;10.73;;
3347;SDS011;1687;49.540;8.574;2023-04-09T06:04:17;31.90;;;10.73;;
3347;SDS011;1687;49.540;8.574;2023-04-09T06:06:42;26.47;;;11.10;;
3347;SDS011;1687;49.540;8.574;2023-04-09T06:09:08;32.87;;;11.13;;
3347;SDS011;1687;49.540;8.574;2023-04-09T06:11:34;22.07;;;9.97;;
3347;SDS011;1687;49.540;8.574;2023-04-09T06:14:00;24.00;;;10.47;;
3347;SDS011;1687;49.540;8.574;2023-04-09T06:16:25;21.00;;;10.20;;
3347;SDS011;1687;49.540;8.574;2023-04-09T06:18:51;22.80;;;10.03;;
3347;SDS011;1687;49.540;8.574;2023-04-09T06:21:18;22.27;;;10.37;;
3347;SDS011;1687;49.540;8.574;2023-04-09T06:23:44;27.33;;;11.43;;
3347;SDS011;1687;49.540;8.574;2023-04-09T06:26:10;27.93;;;10.00;;
3347;SDS011;1687;49.540;8.574;2023-04-09T06:28:36;25.47;;;9.70;;
3347;SDS011;1687;49.540;8.574;2023-04-09T06:31:01;28.77;;;11.37;;
3347;SDS011;1687;49.540;8.574;2023-04-09T06:33:27;24.37;;;9.50;;
3347;SDS011;1687;49.540;8.574;2023-04-09T06:35:53;30.07;;;10.80;;
3347;SDS011;1687;49.540;8.574;2023-04-09T06:38:18;19.00;;;9.20;;
3347;SDS011;1687;49.540;8.574;2023-04-09T06:40:44;24.63;;;10.30;;
3347;SDS011;1687;49.540;8.574;2023-04-09T06:43:10;26.57;;;9.97;;
3347;SDS011;1687;49.540;8.574;2023-04-09T06:45:36;31.17;;;13.00;;
3347;SDS011;1687;49.540;8.574;2023-04-09T06:48:02;30.87;;;12.67;;
3347;SDS011;1687;49.540;8.574;2023-04-09T06:50:28;22.27;;;10.60;;
3347;SDS011;1687;49.540;8.574;2023-04-09T06:52:54;24.00;;;10.77;;
3347;SDS011;1687;49.540;8.574;2023-04-09T06:55:21;20.00;;;8.60;;
3347;SDS011;1687;49.540;8.574;2023-04-09T06:57:47;26.10;;;10.70;;
3347;SDS011;1687;49.540;8.574;2023-04-09T07:00:13;17.87;;;8.87;;
3347;SDS011;1687;49.540;8.574;2023-04-09T07:02:39;28.67;;;11.33;;
3347;SDS011;1687;49.540;8.574;2023-04-09T07:05:05;29.17;;;12.00;;
3347;SDS011;1687;49.540;8.574;2023-04-09T07:07:31;19.90;;;10.20;;
3347;SDS011;1687;49.540;8.574;2023-04-09T07:09:57;26.77;;;11.70;;
3347;SDS011;1687;49.540;8.574;2023-04-09T07:14:52;28.20;;;11.43;;
3347;SDS011;1687;49.540;8.574;2023-04-09T07:17:22;23.83;;;12.30;;
3347;SDS011;1687;49.540;8.574;2023-04-09T07:19:48;28.20;;;9.63;;
3347;SDS011;1687;49.540;8.574;2023-04-09T07:22:15;22.83;;;9.77;;
3347;SDS011;1687;49.540;8.574;2023-04-09T07:24:42;29.50;;;11.60;;
3347;SDS011;1687;49.540;8.574;2023-04-09T07:27:07;26.50;;;12.27;;
3347;SDS011;1687;49.540;8.574;2023-04-09T07:29:33;19.10;;;8.97;;
3347;SDS011;1687;49.540;8.574;2023-04-09T07:32:00;22.90;;;10.20;;
3347;SDS011;1687;49.540;8.574;2023-04-09T07:34:27;29.13;;;11.00;;
3347;SDS011;1687;49.540;8.574;2023-04-09T07:36:53;19.03;;;8.40;;
3347;SDS011;1687;49.540;8.574;2023-04-09T07:39:19;22.33;;;10.23;;
3347;SDS011;1687;49.540;8.574;2023-04-09T07:41:46;33.23;;;11.40;;
3347;SDS011;1687;49.540;8.574;2023-04-09T07:44:12;19.20;;;9.60;;
3347;SDS011;1687;49.540;8.574;2023-04-09T07:46:38;19.30;;;8.73;;
3347;SDS011;1687;49.540;8.574;2023-04-09T07:49:04;23.27;;;9.77;;
3347;SDS011;1687;49.540;8.574;2023-04-09T07:51:29;21.87;;;9.20;;
3347;SDS011;1687;49.540;8.574;2023-04-09T07:53:55;22.57;;;9.80;;
3347;SDS011;1687;49.540;8.574;2023-04-09T07:56:21;28.93;;;11.37;;
3347;SDS011;1687;49.540;8.574;2023-04-09T07:58:47;22.63;;;8.63;;
3347;SDS011;1687;49.540;8.574;2023-04-09T08:01:14;23.30;;;10.90;;
3347;SDS011;1687;49.540;8.574;2023-04-09T08:03:40;27.63;;;10.80;;
3347;SDS011;1687;49.540;8.574;2023-04-09T08:06:06;21.10;;;8.57;;
3347;SDS011;1687;49.540;8.574;2023-04-09T08:08:32;20.83;;;9.37;;
3347;SDS011;1687;49.540;8.574;2023-04-09T08:10:58;25.67;;;10.80;;
3347;SDS011;1687;49.540;8.574;2023-04-09T08:13:23;23.50;;;9.23;;
3347;SDS011;1687;49.540;8.574;2023-04-09T08:15:51;28.03;;;11.00;;
3347;SDS011;1687;49.540;8.574;2023-04-09T08:18:17;19.47;;;9.47;;
3347;SDS011;1687;49.540;8.574;2023-04-09T08:20:42;25.03;;;8.30;;
3347;SDS011;1687;49.540;8.574;2023-04-09T08:23:12;26.50;;;11.00;;
3347;SDS011;1687;49.540;8.574;2023-04-09T08:25:38;21.90;;;9.27;;
3347;SDS011;1687;49.540;8.574;2023-04-09T08:28:03;24.13;;;10.27;;
3347;SDS011;1687;49.540;8.574;2023-04-09T08:30:29;21.30;;;10.60;;
3347;SDS011;1687;49.540;8.574;2023-04-09T08:32:58;16.23;;;9.23;;
3347;SDS011;1687;49.540;8.574;2023-04-09T08:35:25;20.83;;;9.60;;
3347;SDS011;1687;49.540;8.574;2023-04-09T08:37:52;17.13;;;9.13;;
3347;SDS011;1687;49.540;8.574;2023-04-09T08:40:20;21.13;;;8.60;;
3347;SDS011;1687;49.540;8.574;2023-04-09T08:42:46;21.90;;;10.40;;
3347;SDS011;1687;49.540;8.574;2023-04-09T08:45:20;20.47;;;9.90;;
3347;SDS011;1687;49.540;8.574;2023-04-09T08:47:47;20.60;;;8.33;;
3347;SDS011;1687;49.540;8.574;2023-04-09T08:50:15;25.80;;;15.80;;
3347;SDS011;1687;49.540;8.574;2023-04-09T08:52:40;20.20;;;9.00;;
3347;SDS011;1687;49.540;8.574;2023-04-09T08:55:10;18.77;;;9.60;;
3347;SDS011;1687;49.540;8.574;2023-04-09T08:57:37;21.57;;;9.80;;
3347;SDS011;1687;49.540;8.574;2023-04-09T09:00:03;23.80;;;7.70;;
3347;SDS011;1687;49.540;8.574;2023-04-09T09:02:33;20.07;;;8.97;;
3347;SDS011;1687;49.540;8.574;2023-04-09T09:04:59;19.40;;;8.50;;
3347;SDS011;1687;49.540;8.574;2023-04-09T09:07:28;20.30;;;8.53;;
3347;SDS011;1687;49.540;8.574;2023-04-09T09:12:31;17.57;;;7.03;;
3347;SDS011;1687;49.540;8.574;2023-04-09T09:14:57;23.50;;;8.90;;
3347;SDS011;1687;49.540;8.574;2023-04-09T09:17:23;16.60;;;7.53;;
3347;SDS011;1687;49.540;8.574;2023-04-09T09:19:49;14.57;;;8.60;;
3347;SDS011;1687;49.540;8.574;2023-04-09T09:22:15;13.90;;;6.90;;
3347;SDS011;1687;49.540;8.574;2023-04-09T09:24:44;17.87;;;7.80;;
3347;SDS011;1687;49.540;8.574;2023-04-09T09:27:29;15.10;;;7.83;;
3347;SDS011;1687;49.540;8.574;2023-04-09T09:29:57;15.13;;;6.77;;
3347;SDS011;1687;49.540;8.574;2023-04-09T09:32:23;14.63;;;5.87;;
3347;SDS011;1687;49.540;8.574;2023-04-09T09:35:01;17.70;;;7.77;;
3347;SDS011;1687;49.540;8.574;2023-04-09T09:37:31;12.00;;;6.20;;
3347;SDS011;1687;49.540;8.574;2023-04-09T09:39:58;17.00;;;7.40;;
3347;SDS011;1687;49.540;8.574;2023-04-09T09:42:24;16.27;;;8.10;;
3347;SDS011;1687;49.540;8.574;2023-04-09T09:44:51;16.77;;;6.37;;
3347;SDS011;1687;49.540;8.574;2023-04-09T09:47:19;14.33;;;8.13;;
3347;SDS011;1687;49.540;8.574;2023-04-09T09:49:50;13.67;;;6.03;;
3347;SDS011;1687;49.540;8.574;2023-04-09T09:52:24;13.37;;;6.73;;
3347;SDS011;1687;49.540;8.574;2023-04-09T09:54:54;13.93;;;6.67;;
3347;SDS011;1687;49.540;8.574;2023-04-09T09:57:21;11.10;;;6.53;;
3347;SDS011;1687;49.540;8.574;2023-04-09T09:59:50;13.70;;;8.60;;
3347;SDS011;1687;49.540;8.574;2023-04-09T10:02:21;15.60;;;7.57;;
3347;SDS011;1687;49.540;8.574;2023-04-09T10:04:48;16.13;;;7.83;;
3347;SDS011;1687;49.540;8.574;2023-04-09T10:07:16;13.30;;;6.93;;
3347;SDS011;1687;49.540;8.574;2023-04-09T10:09:47;14.10;;;6.57;;
3347;SDS011;1687;49.540;8.574;2023-04-09T10:12:15;11.97;;;6.27;;
3347;SDS011;1687;49.540;8.574;2023-04-09T10:14:43;18.30;;;7.10;;
3347;SDS011;1687;49.540;8.574;2023-04-09T10:17:09;13.33;;;6.50;;
3347;SDS011;1687;49.540;8.574;2023-04-09T10:19:43;12.50;;;7.00;;
3347;SDS011;1687;49.540;8.574;2023-04-09T10:22:19;14.23;;;6.20;;
3347;SDS011;1687;49.540;8.574;2023-04-09T10:24:50;13.00;;;6.70;;
3347;SDS011;1687;49.540;8.574;2023-04-09T10:27:16;13.90;;;6.20;;
3347;SDS011;1687;49.540;8.574;2023-04-09T10:29:46;13.63;;;6.57;;
3347;SDS011;1687;49.540;8.574;2023-04-09T10:32:19;11.87;;;7.00;;
3347;SDS011;1687;49.540;8.574;2023-04-09T10:34:48;16.27;;;7.57;;
3347;SDS011;1687;49.540;8.574;2023-04-09T10:37:23;15.00;;;6.50;;
3347;SDS011;1687;49.540;8.574;2023-04-09T10:39:50;14.77;;;7.13;;
3347;SDS011;1687;49.540;8.574;2023-04-09T10:42:23;16.37;;;6.83;;
3347;SDS011;1687;49.540;8.574;2023-04-09T10:45:04;11.47;;;6.50;;
3347;SDS011;1687;49.540;8.574;2023-04-09T10:47:38;11.17;;;6.10;;
3347;SDS011;1687;49.540;8.574;2023-04-09T10:50:13;14.10;;;8.10;;
3347;SDS011;1687;49.540;8.574;2023-04-09T10:52:44;13.60;;;8.00;;
3347;SDS011;1687;49.540;8.574;2023-04-09T10:58:06;15.33;;;7.57;;
3347;SDS011;1687;49.540;8.574;2023-04-09T11:00:38;13.40;;;6.73;;
3347;SDS011;1687;49.540;8.574;2023-04-09T11:03:12;14.17;;;5.57;;
3347;SDS011;1687;49.540;8.574;2023-04-09T11:05:43;13.53;;;5.87;;
3347;SDS011;1687;49.540;8.574;2023-04-09T11:08:16;14.47;;;5.70;;
3347;SDS011;1687;49.540;8.574;2023-04-09T11:10:42;14.33;;;7.10;;
3347;SDS011;1687;49.540;8.574;2023-04-09T11:13:12;15.00;;;6.57;;
3347;SDS011;1687;49.540;8.574;2023-04-09T11:15:40;10.57;;;5.23;;
3347;SDS011;1687;49.540;8.574;2023-04-09T11:18:06;11.63;;;6.47;;
3347;SDS011;1687;49.540;8.574;2023-04-09T11:20:33;14.07;;;6.53;;
3347;SDS011;1687;49.540;8.574;2023-04-09T11:23:00;14.90;;;7.20;;
3347;SDS011;1687;49.540;8.574;2023-04-09T11:25:27;9.60;;;5.70;;
3347;SDS011;1687;49.540;8.574;2023-04-09T11:27:55;11.80;;;5.80;;
3347;SDS011;1687;49.540;8.574;2023-04-09T11:30:20;9.83;;;5.30;;
3347;SDS011;1687;49.540;8.574;2023-04-09T11:32:47;9.73;;;6.13;;
3347;SDS011;1687;49.540;8.574;2023-04-09T11:35:14;10.73;;;5.07;;
3347;SDS011;1687;49.540;8.574;2023-04-09T11:37:42;9.67;;;5.70;;
3347;SDS011;1687;49.540;8.574;2023-04-09T11:40:19;15.73;;;6.37;;
3347;SDS011;1687;49.540;8.574;2023-04-09T11:42:49;10.67;;;5.20;;
3347;SDS011;1687;49.540;8.574;2023-04-09T11:45:20;9.60;;;5.83;;
3347;SDS011;1687;49.540;8.574;2023-04-09T11:47:50;11.00;;;5.10;;
3347;SDS011;1687;49.540;8.574;2023-04-09T11:50:16;12.53;;;5.67;;
3347;SDS011;1687;49.540;8.574;2023-04-09T11:52:46;12.63;;;6.20;;
3347;SDS011;1687;49.540;8.574;2023-04-09T11:55:26;12.10;;;6.43;;
3347;SDS011;1687;49.540;8.574;2023-04-09T11:57:57;8.00;;;4.43;;
3347;SDS011;1687;49.540;8.574;2023-04-09T12:00:27;11.90;;;4.60;;
3347;SDS011;1687;49.540;8.574;2023-04-09T12:03:00;10.87;;;5.47;;
3347;SDS011;1687;49.540;8.574;2023-04-09T12:05:28;12.40;;;6.00;;
3347;SDS011;1687;49.540;8.574;2023-04-09T12:08:00;13.50;;;5.27;;
3347;SDS011;1687;49.540;8.574;2023-04-09T12:10:29;9.47;;;5.17;;
3347;SDS011;1687;49.540;8.574;2023-04-09T12:13:15;12.00;;;4.83;;
3347;SDS011;1687;49.540;8.574;2023-04-09T12:15:41;11.20;;;5.33;;
3347;SDS011;1687;49.540;8.574;2023-04-09T12:18:10;12.50;;;5.40;;
3347;SDS011;1687;49.540;8.574;2023-04-09T12:20:38;11.30;;;5.60;;
3347;SDS011;1687;49.540;8.574;2023-04-09T12:23:07;13.97;;;5.97;;
3347;SDS011;1687;49.540;8.574;2023-04-09T12:25:35;8.30;;;4.90;;
3347;SDS011;1687;49.540;8.574;2023-04-09T12:28:03;18.30;;;5.57;;
3347;SDS011;1687;49.540;8.574;2023-04-09T12:30:31;12.07;;;5.10;;
3347;SDS011;1687;49.540;8.574;2023-04-09T12:32:57;8.53;;;4.47;;
3347;SDS011;1687;49.540;8.574;2023-04-09T12:35:24;14.40;;;4.70;;
3347;SDS011;1687;49.540;8.574;2023-04-09T12:37:50;9.57;;;5.77;;
3347;SDS011;1687;49.540;8.574;2023-04-09T12:40:16;10.30;;;4.70;;
3347;SDS011;1687;49.540;8.574;2023-04-09T12:42:43;11.53;;;4.83;;
3347;SDS011;1687;49.540;8.574;2023-04-09T12:45:11;8.00;;;3.60;;
3347;SDS011;1687;49.540;8.574;2023-04-09T12:47:39;7.00;;;3.77;;
3347;SDS011;1687;49.540;8.574;2023-04-09T12:50:06;6.90;;;3.90;;
3347;SDS011;1687;49.540;8.574;2023-04-09T12:52:33;7.40;;;3.77;;
3347;SDS011;1687;49.540;8.574;2023-04-09T12:54:59;7.37;;;3.87;;
3347;SDS011;1687;49.540;8.574;2023-04-09T12:57:26;8.00;;;3.60;;
3347;SDS011;1687;49.540;8.574;2023-04-09T12:59:52;8.57;;;4.43;;
3347;SDS011;1687;49.540;8.574;2023-04-09T13:02:18;7.53;;;4.10;;
3347;SDS011;1687;49.540;8.574;2023-04-09T13:04:47;5.97;;;3.50;;
3347;SDS011;1687;49.540;8.574;2023-04-09T13:07:15;11.73;;;5.60;;
3347;SDS011;1687;49.540;8.574;2023-04-09T13:09:42;8.63;;;3.83;;
3347;SDS011;1687;49.540;8.574;2023-04-09T13:12:09;6.57;;;3.30;;
3347;SDS011;1687;49.540;8.574;2023-04-09T13:14:35;7.97;;;4.63;;
3347;SDS011;1687;49.540;8.574;2023-04-09T13:17:03;6.90;;;3.93;;
3347;SDS011;1687;49.540;8.574;2023-04-09T13:19:29;7.97;;;3.67;;
3347;SDS011;1687;49.540;8.574;2023-04-09T13:21:55;9.63;;;4.97;;
3347;SDS011;1687;49.540;8.574;2023-04-09T13:24:20;7.07;;;4.30;;
3347;SDS011;1687;49.540;8.574;2023-04-09T13:26:46;5.60;;;3.43;;
3347;SDS011;1687;49.540;8.574;2023-04-09T13:29:12;7.30;;;4.00;;
3347;SDS011;1687;49.540;8.574;2023-04-09T13:31:37;6.80;;;3.90;;
3347;SDS011;1687;49.540;8.574;2023-04-09T13:34:03;9.53;;;4.17;;
3347;SDS011;1687;49.540;8.574;2023-04-09T13:36:30;9.03;;;4.10;;
3347;SDS011;1687;49.540;8.574;2023-04-09T13:38:56;7.97;;;4.13;;
3347;SDS011;1687;49.540;8.574;2023-04-09T13:41:31;8.20;;;3.80;;
3347;SDS011;1687;49.540;8.574;2023-04-09T13:43:58;8.47;;;4.60;;
3347;SDS011;1687;49.540;8.574;2023-04-09T13:46:24;6.67;;;3.83;;
3347;SDS011;1687;49.540;8.574;2023-04-09T13:48:51;6.77;;;3.77;;
3347;SDS011;1687;49.540;8.574;2023-04-09T13:51:16;7.53;;;3.20;;
3347;SDS011;1687;49.540;8.574;2023-04-09T13:53:42;11.00;;;4.57;;
3347;SDS011;1687;49.540;8.574;2023-04-09T13:56:09;5.60;;;3.30;;
3347;SDS011;1687;49.540;8.574;2023-04-09T13:58:35;6.37;;;3.43;;
3347;SDS011;1687;49.540;8.574;2023-04-09T14:01:01;10.07;;;3.90;;
3347;SDS011;1687;49.540;8.574;2023-04-09T14:03:27;5.90;;;3.40;;
3347;SDS011;1687;49.540;8.574;2023-04-09T14:05:52;6.77;;;3.33;;
3347;SDS011;1687;49.540;8.574;2023-04-09T14:08:18;4.57;;;3.10;;
3347;SDS011;1687;49.540;8.574;2023-04-09T14:10:44;10.70;;;3.60;;
3347;SDS011;1687;49.540;8.574;2023-04-09T14:13:09;6.17;;;4.17;;
3347;SDS011;1687;49.540;8.574;2023-04-09T14:15:36;11.13;;;4.83;;
3347;SDS011;1687;49.540;8.574;2023-04-09T14:18:02;5.63;;;3.50;;
3347;SDS011;1687;49.540;8.574;2023-04-09T14:20:27;6.03;;;4.00;;
3347;SDS011;1687;49.540;8.574;2023-04-09T14:22:53;9.87;;;4.50;;
3347;SDS011;1687;49.540;8.574;2023-04-09T14:25:19;6.70;;;3.70;;
3347;SDS011;1687;49.540;8.574;2023-04-09T14:27:44;5.73;;;3.30;;
3347;SDS011;1687;49.540;8.574;2023-04-09T14:30:11;5.33;;;3.13;;
3347;SDS011;1687;49.540;8.574;2023-04-09T14:32:37;6.50;;;3.90;;
3347;SDS011;1687;49.540;8.574;2023-04-09T14:35:03;6.00;;;4.10;;
3347;SDS011;1687;49.540;8.574;2023-04-09T14:37:29;6.90;;;3.70;;
3347;SDS011;1687;49.540;8.574;2023-04-09T14:39:55;5.20;;;3.57;;
3347;SDS011;1687;49.540;8.574;2023-04-09T14:42:21;4.70;;;3.00;;
3347;SDS011;1687;49.540;8.574;2023-04-09T14:44:47;4.03;;;2.10;;
3347;SDS011;1687;49.540;8.574;2023-04-09T14:47:12;4.27;;;3.23;;
3347;SDS011;1687;49.540;8.574;2023-04-09T14:49:39;4.20;;;2.63;;
3347;SDS011;1687;49.540;8.574;2023-04-09T14:52:04;3.70;;;2.87;;
3347;SDS011;1687;49.540;8.574;2023-04-09T14:54:30;8.70;;;3.40;;
3347;SDS011;1687;49.540;8.574;2023-04-09T14:56:57;3.60;;;2.63;;
3347;SDS011;1687;49.540;8.574;2023-04-09T14:59:23;3.67;;;2.47;;
3347;SDS011;1687;49.540;8.574;2023-04-09T15:01:49;3.30;;;2.43;;
3347;SDS011;1687;49.540;8.574;2023-04-09T15:04:16;4.40;;;2.10;;
3347;SDS011;1687;49.540;8.574;2023-04-09T15:06:42;3.30;;;2.70;;
3347;SDS011;1687;49.540;8.574;2023-04-09T15:09:07;2.90;;;2.60;;
3347;SDS011;1687;49.540;8.574;2023-04-09T15:11:33;3.70;;;2.77;;
3347;SDS011;1687;49.540;8.574;2023-04-09T15:13:59;2.70;;;2.50;;
3347;SDS011;1687;49.540;8.574;2023-04-09T15:16:27;2.23;;;2.03;;
3347;SDS011;1687;49.540;8.574;2023-04-09T15:18:53;2.60;;;2.40;;
3347;SDS011;1687;49.540;8.574;2023-04-09T15:21:21;3.00;;;2.30;;
3347;SDS011;1687;49.540;8.574;2023-04-09T15:23:50;5.37;;;3.50;;
3347;SDS011;1687;49.540;8.574;2023-04-09T15:26:16;2.90;;;2.60;;